sensor_id;sensor_type;location;lat;lon;timestamp;pressure;altitude;pressure_sealevel;temperature
67758;BMP180;54562;47.620;18.786;2022-11-15T00:01:42;98872.20;;;4.30
67758;BMP180;54562;47.620;18.786;2022-11-15T00:04:50;98874.20;;;4.20
67758;BMP180;54562;47.620;18.786;2022-11-15T00:07:59;98871.80;;;4.20
67758;BMP180;54562;47.620;18.786;2022-11-15T00:11:08;98869.20;;;4.30
67758;BMP180;54562;47.620;18.786;2022-11-15T00:14:16;98864.60;;;4.48
67758;BMP180;54562;47.620;18.786;2022-11-15T00:17:25;98859.80;;;4.70
67758;BMP180;54562;47.620;18.786;2022-11-15T00:20:34;98863.60;;;4.90
67758;BMP180;54562;47.620;18.786;2022-11-15T00:23:43;98866.40;;;5.06
67758;BMP180;54562;47.620;18.786;2022-11-15T00:26:51;98858.20;;;5.20
67758;BMP180;54562;47.620;18.786;2022-11-15T00:29:59;98859.40;;;5.30
67758;BMP180;54562;47.620;18.786;2022-11-15T00:33:10;98864.20;;;5.20
67758;BMP180;54562;47.620;18.786;2022-11-15T00:36:18;98868.80;;;5.10
67758;BMP180;54562;47.620;18.786;2022-11-15T00:39:26;98870.40;;;5.00
67758;BMP180;54562;47.620;18.786;2022-11-15T00:42:36;98867.00;;;4.90
67758;BMP180;54562;47.620;18.786;2022-11-15T00:45:44;98861.40;;;4.90
67758;BMP180;54562;47.620;18.786;2022-11-15T00:48:52;98855.80;;;4.80
67758;BMP180;54562;47.620;18.786;2022-11-15T00:52:00;98846.40;;;4.80
67758;BMP180;54562;47.620;18.786;2022-11-15T00:55:09;98844.80;;;4.80
67758;BMP180;54562;47.620;18.786;2022-11-15T00:58:20;98843.60;;;4.82
67758;BMP180;54562;47.620;18.786;2022-11-15T01:01:29;98840.60;;;4.90
67758;BMP180;54562;47.620;18.786;2022-11-15T01:04:36;98832.80;;;4.90
67758;BMP180;54562;47.620;18.786;2022-11-15T01:07:45;98831.40;;;5.00
67758;BMP180;54562;47.620;18.786;2022-11-15T01:10:53;98831.20;;;5.00
67758;BMP180;54562;47.620;18.786;2022-11-15T01:14:01;98828.40;;;5.00
67758;BMP180;54562;47.620;18.786;2022-11-15T01:17:09;98828.40;;;5.02
67758;BMP180;54562;47.620;18.786;2022-11-15T01:20:17;98822.80;;;5.00
67758;BMP180;54562;47.620;18.786;2022-11-15T01:23:25;98824.20;;;5.02
67758;BMP180;54562;47.620;18.786;2022-11-15T01:26:33;98823.60;;;5.08
67758;BMP180;54562;47.620;18.786;2022-11-15T01:29:41;98819.00;;;5.02
67758;BMP180;54562;47.620;18.786;2022-11-15T01:32:49;98825.00;;;5.00
67758;BMP180;54562;47.620;18.786;2022-11-15T01:35:58;98817.60;;;4.90
67758;BMP180;54562;47.620;18.786;2022-11-15T01:39:06;98817.20;;;4.90
67758;BMP180;54562;47.620;18.786;2022-11-15T01:42:16;98817.40;;;4.80
67758;BMP180;54562;47.620;18.786;2022-11-15T01:45:25;98812.40;;;4.80
67758;BMP180;54562;47.620;18.786;2022-11-15T01:48:35;98813.00;;;4.80
67758;BMP180;54562;47.620;18.786;2022-11-15T01:51:45;98810.00;;;4.74
67758;BMP180;54562;47.620;18.786;2022-11-15T01:54:59;98809.20;;;4.74
67758;BMP180;54562;47.620;18.786;2022-11-15T01:58:10;98810.20;;;4.70
67758;BMP180;54562;47.620;18.786;2022-11-15T02:01:18;98803.40;;;4.70
67758;BMP180;54562;47.620;18.786;2022-11-15T02:04:31;98797.40;;;4.70
67758;BMP180;54562;47.620;18.786;2022-11-15T02:07:40;98799.60;;;4.70
67758;BMP180;54562;47.620;18.786;2022-11-15T02:10:51;98790.00;;;4.80
67758;BMP180;54562;47.620;18.786;2022-11-15T02:14:01;98791.80;;;4.90
67758;BMP180;54562;47.620;18.786;2022-11-15T02:17:42;98789.20;;;5.00
67758;BMP180;54562;47.620;18.786;2022-11-15T02:21:16;98788.40;;;4.90
67758;BMP180;54562;47.620;18.786;2022-11-15T02:24:54;98783.00;;;4.90
67758;BMP180;54562;47.620;18.786;2022-11-15T02:28:47;98777.60;;;4.80
67758;BMP180;54562;47.620;18.786;2022-11-15T02:32:04;98777.00;;;4.80
67758;BMP180;54562;47.620;18.786;2022-11-15T02:35:27;98777.20;;;4.80
67758;BMP180;54562;47.620;18.786;2022-11-15T02:38:46;98766.80;;;4.90
67758;BMP180;54562;47.620;18.786;2022-11-15T02:42:02;98766.00;;;5.00
67758;BMP180;54562;47.620;18.786;2022-11-15T02:45:16;98764.40;;;5.10
67758;BMP180;54562;47.620;18.786;2022-11-15T02:48:26;98759.00;;;5.20
67758;BMP180;54562;47.620;18.786;2022-11-15T02:51:35;98755.40;;;5.30
67758;BMP180;54562;47.620;18.786;2022-11-15T02:54:52;98754.20;;;5.30
67758;BMP180;54562;47.620;18.786;2022-11-15T02:58:19;98761.00;;;5.30
67758;BMP180;54562;47.620;18.786;2022-11-15T03:01:43;98754.60;;;5.36
67758;BMP180;54562;47.620;18.786;2022-11-15T03:05:00;98754.60;;;5.38
67758;BMP180;54562;47.620;18.786;2022-11-15T03:08:18;98749.80;;;5.40
67758;BMP180;54562;47.620;18.786;2022-11-15T03:11:30;98745.80;;;5.40
67758;BMP180;54562;47.620;18.786;2022-11-15T03:14:47;98751.00;;;5.40
67758;BMP180;54562;47.620;18.786;2022-11-15T03:18:04;98738.80;;;5.40
67758;BMP180;54562;47.620;18.786;2022-11-15T03:21:16;98737.00;;;5.40
67758;BMP180;54562;47.620;18.786;2022-11-15T03:24:30;98729.20;;;5.44
67758;BMP180;54562;47.620;18.786;2022-11-15T03:27:44;98727.80;;;5.50
67758;BMP180;54562;47.620;18.786;2022-11-15T03:30:56;98730.60;;;5.56
67758;BMP180;54562;47.620;18.786;2022-11-15T03:34:09;98727.00;;;5.60
67758;BMP180;54562;47.620;18.786;2022-11-15T03:37:24;98723.80;;;5.60
67758;BMP180;54562;47.620;18.786;2022-11-15T03:40:39;98723.40;;;5.70
67758;BMP180;54562;47.620;18.786;2022-11-15T03:43:55;98718.60;;;5.70
67758;BMP180;54562;47.620;18.786;2022-11-15T03:47:10;98714.00;;;5.80
67758;BMP180;54562;47.620;18.786;2022-11-15T03:50:22;98706.40;;;5.80
67758;BMP180;54562;47.620;18.786;2022-11-15T03:53:33;98708.80;;;5.80
67758;BMP180;54562;47.620;18.786;2022-11-15T03:56:41;98697.20;;;5.80
67758;BMP180;54562;47.620;18.786;2022-11-15T03:59:49;98700.80;;;5.80
67758;BMP180;54562;47.620;18.786;2022-11-15T04:02:57;98701.00;;;5.80
67758;BMP180;54562;47.620;18.786;2022-11-15T04:06:06;98704.00;;;5.80
67758;BMP180;54562;47.620;18.786;2022-11-15T04:09:14;98702.40;;;5.80
67758;BMP180;54562;47.620;18.786;2022-11-15T04:12:22;98707.00;;;5.80
67758;BMP180;54562;47.620;18.786;2022-11-15T04:15:38;98700.80;;;5.80
67758;BMP180;54562;47.620;18.786;2022-11-15T04:18:46;98697.60;;;5.76
67758;BMP180;54562;47.620;18.786;2022-11-15T04:22:15;98698.80;;;5.70
67758;BMP180;54562;47.620;18.786;2022-11-15T04:25:41;98699.80;;;5.70
67758;BMP180;54562;47.620;18.786;2022-11-15T04:28:51;98701.20;;;5.70
67758;BMP180;54562;47.620;18.786;2022-11-15T04:32:16;98705.40;;;5.70
67758;BMP180;54562;47.620;18.786;2022-11-15T04:35:24;98710.60;;;5.70
67758;BMP180;54562;47.620;18.786;2022-11-15T04:38:32;98704.00;;;5.70
67758;BMP180;54562;47.620;18.786;2022-11-15T04:41:40;98710.20;;;5.70
67758;BMP180;54562;47.620;18.786;2022-11-15T04:44:48;98712.40;;;5.70
67758;BMP180;54562;47.620;18.786;2022-11-15T04:47:56;98726.20;;;5.72
67758;BMP180;54562;47.620;18.786;2022-11-15T04:51:04;98710.00;;;5.60
67758;BMP180;54562;47.620;18.786;2022-11-15T04:54:12;98699.20;;;5.50
67758;BMP180;54562;47.620;18.786;2022-11-15T04:57:20;98698.20;;;5.50
67758;BMP180;54562;47.620;18.786;2022-11-15T05:00:30;98688.80;;;5.42
67758;BMP180;54562;47.620;18.786;2022-11-15T05:03:37;98695.60;;;5.50
67758;BMP180;54562;47.620;18.786;2022-11-15T05:07:04;98695.80;;;5.50
67758;BMP180;54562;47.620;18.786;2022-11-15T05:10:13;98691.00;;;5.60
67758;BMP180;54562;47.620;18.786;2022-11-15T05:13:21;98697.20;;;5.60
67758;BMP180;54562;47.620;18.786;2022-11-15T05:16:29;98696.60;;;5.68
67758;BMP180;54562;47.620;18.786;2022-11-15T05:19:37;98691.40;;;5.70
67758;BMP180;54562;47.620;18.786;2022-11-15T05:22:46;98687.40;;;5.74
67758;BMP180;54562;47.620;18.786;2022-11-15T05:26:00;98684.60;;;5.80
67758;BMP180;54562;47.620;18.786;2022-11-15T05:29:14;98681.80;;;5.80
67758;BMP180;54562;47.620;18.786;2022-11-15T05:32:23;98676.40;;;5.80
67758;BMP180;54562;47.620;18.786;2022-11-15T05:35:37;98673.20;;;5.74
67758;BMP180;54562;47.620;18.786;2022-11-15T05:38:46;98673.00;;;5.74
67758;BMP180;54562;47.620;18.786;2022-11-15T05:42:01;98670.00;;;5.76
67758;BMP180;54562;47.620;18.786;2022-11-15T05:45:11;98665.80;;;5.80
67758;BMP180;54562;47.620;18.786;2022-11-15T05:48:20;98659.60;;;5.80
67758;BMP180;54562;47.620;18.786;2022-11-15T05:51:30;98659.00;;;5.80
67758;BMP180;54562;47.620;18.786;2022-11-15T05:54:40;98656.40;;;5.80
67758;BMP180;54562;47.620;18.786;2022-11-15T05:57:48;98652.40;;;5.80
67758;BMP180;54562;47.620;18.786;2022-11-15T06:00:57;98647.80;;;5.80
67758;BMP180;54562;47.620;18.786;2022-11-15T06:04:05;98644.60;;;5.84
67758;BMP180;54562;47.620;18.786;2022-11-15T06:07:13;98647.60;;;5.90
67758;BMP180;54562;47.620;18.786;2022-11-15T06:10:22;98652.00;;;5.90
67758;BMP180;54562;47.620;18.786;2022-11-15T06:13:30;98650.80;;;5.90
67758;BMP180;54562;47.620;18.786;2022-11-15T06:16:39;98645.80;;;5.88
67758;BMP180;54562;47.620;18.786;2022-11-15T06:19:47;98656.40;;;5.90
67758;BMP180;54562;47.620;18.786;2022-11-15T06:22:59;98666.00;;;5.82
67758;BMP180;54562;47.620;18.786;2022-11-15T06:26:08;98673.60;;;5.80
67758;BMP180;54562;47.620;18.786;2022-11-15T06:29:17;98684.60;;;5.80
67758;BMP180;54562;47.620;18.786;2022-11-15T06:32:25;98687.20;;;5.80
67758;BMP180;54562;47.620;18.786;2022-11-15T06:35:36;98678.00;;;5.82
67758;BMP180;54562;47.620;18.786;2022-11-15T06:38:45;98674.20;;;5.88
67758;BMP180;54562;47.620;18.786;2022-11-15T06:41:53;98668.20;;;5.90
67758;BMP180;54562;47.620;18.786;2022-11-15T06:45:02;98666.40;;;5.90
67758;BMP180;54562;47.620;18.786;2022-11-15T06:48:11;98671.00;;;5.90
67758;BMP180;54562;47.620;18.786;2022-11-15T06:51:20;98666.80;;;5.90
67758;BMP180;54562;47.620;18.786;2022-11-15T06:54:28;98666.60;;;5.94
67758;BMP180;54562;47.620;18.786;2022-11-15T06:57:36;98666.00;;;5.92
67758;BMP180;54562;47.620;18.786;2022-11-15T07:00:46;98665.00;;;5.90
67758;BMP180;54562;47.620;18.786;2022-11-15T07:03:54;98665.60;;;5.90
67758;BMP180;54562;47.620;18.786;2022-11-15T07:07:02;98658.80;;;5.90
67758;BMP180;54562;47.620;18.786;2022-11-15T07:10:12;98662.60;;;5.90
67758;BMP180;54562;47.620;18.786;2022-11-15T07:13:20;98662.80;;;5.90
67758;BMP180;54562;47.620;18.786;2022-11-15T07:16:31;98664.20;;;5.94
67758;BMP180;54562;47.620;18.786;2022-11-15T07:19:40;98661.80;;;6.00
67758;BMP180;54562;47.620;18.786;2022-11-15T07:22:48;98659.40;;;6.00
67758;BMP180;54562;47.620;18.786;2022-11-15T07:25:57;98656.40;;;6.00
67758;BMP180;54562;47.620;18.786;2022-11-15T07:29:05;98650.40;;;6.08
67758;BMP180;54562;47.620;18.786;2022-11-15T07:32:13;98644.20;;;6.10
67758;BMP180;54562;47.620;18.786;2022-11-15T07:35:21;98644.00;;;6.10
67758;BMP180;54562;47.620;18.786;2022-11-15T07:38:31;98642.80;;;6.10
67758;BMP180;54562;47.620;18.786;2022-11-15T07:41:45;98642.00;;;6.08
67758;BMP180;54562;47.620;18.786;2022-11-15T07:44:55;98643.80;;;6.04
67758;BMP180;54562;47.620;18.786;2022-11-15T07:48:03;98646.00;;;6.04
67758;BMP180;54562;47.620;18.786;2022-11-15T07:51:14;98651.80;;;6.10
67758;BMP180;54562;47.620;18.786;2022-11-15T07:54:23;98647.40;;;6.18
67758;BMP180;54562;47.620;18.786;2022-11-15T07:57:32;98641.00;;;6.20
67758;BMP180;54562;47.620;18.786;2022-11-15T08:00:40;98642.00;;;6.20
67758;BMP180;54562;47.620;18.786;2022-11-15T08:03:49;98632.60;;;6.18
67758;BMP180;54562;47.620;18.786;2022-11-15T08:06:56;98634.80;;;6.20
67758;BMP180;54562;47.620;18.786;2022-11-15T08:10:07;98645.60;;;6.20
67758;BMP180;54562;47.620;18.786;2022-11-15T08:13:16;98644.80;;;6.20
67758;BMP180;54562;47.620;18.786;2022-11-15T08:16:24;98648.20;;;6.26
67758;BMP180;54562;47.620;18.786;2022-11-15T08:19:32;98649.00;;;6.30
67758;BMP180;54562;47.620;18.786;2022-11-15T08:22:40;98642.00;;;6.30
67758;BMP180;54562;47.620;18.786;2022-11-15T08:25:48;98629.80;;;6.40
67758;BMP180;54562;47.620;18.786;2022-11-15T08:28:56;98632.00;;;6.46
67758;BMP180;54562;47.620;18.786;2022-11-15T08:32:05;98630.40;;;6.50
67758;BMP180;54562;47.620;18.786;2022-11-15T08:35:14;98617.00;;;6.60
67758;BMP180;54562;47.620;18.786;2022-11-15T08:38:21;98608.00;;;6.70
67758;BMP180;54562;47.620;18.786;2022-11-15T08:41:35;98602.40;;;6.82
67758;BMP180;54562;47.620;18.786;2022-11-15T08:44:44;98601.00;;;6.90
67758;BMP180;54562;47.620;18.786;2022-11-15T08:47:52;98593.60;;;6.90
67758;BMP180;54562;47.620;18.786;2022-11-15T08:51:00;98596.80;;;6.90
67758;BMP180;54562;47.620;18.786;2022-11-15T08:54:09;98589.00;;;6.90
67758;BMP180;54562;47.620;18.786;2022-11-15T08:57:17;98581.60;;;6.90
67758;BMP180;54562;47.620;18.786;2022-11-15T09:00:27;98578.40;;;6.90
67758;BMP180;54562;47.620;18.786;2022-11-15T09:03:35;98569.60;;;6.90
67758;BMP180;54562;47.620;18.786;2022-11-15T09:06:44;98576.00;;;6.90
67758;BMP180;54562;47.620;18.786;2022-11-15T09:09:52;98562.40;;;6.90
67758;BMP180;54562;47.620;18.786;2022-11-15T09:13:01;98559.40;;;6.90
67758;BMP180;54562;47.620;18.786;2022-11-15T09:16:10;98563.20;;;6.90
67758;BMP180;54562;47.620;18.786;2022-11-15T09:19:20;98565.00;;;6.80
67758;BMP180;54562;47.620;18.786;2022-11-15T09:22:28;98580.40;;;6.80
67758;BMP180;54562;47.620;18.786;2022-11-15T09:25:37;98591.00;;;6.90
67758;BMP180;54562;47.620;18.786;2022-11-15T09:28:45;98590.00;;;7.00
67758;BMP180;54562;47.620;18.786;2022-11-15T09:31:54;98582.60;;;7.10
67758;BMP180;54562;47.620;18.786;2022-11-15T09:35:03;98579.20;;;7.20
67758;BMP180;54562;47.620;18.786;2022-11-15T09:38:11;98588.60;;;7.30
67758;BMP180;54562;47.620;18.786;2022-11-15T09:41:51;98583.40;;;7.40
67758;BMP180;54562;47.620;18.786;2022-11-15T09:45:17;98582.60;;;7.50
67758;BMP180;54562;47.620;18.786;2022-11-15T09:48:53;98576.60;;;7.56
67758;BMP180;54562;47.620;18.786;2022-11-15T09:52:03;98583.60;;;7.60
67758;BMP180;54562;47.620;18.786;2022-11-15T09:55:14;98580.40;;;7.60
67758;BMP180;54562;47.620;18.786;2022-11-15T09:58:36;98565.40;;;7.62
67758;BMP180;54562;47.620;18.786;2022-11-15T10:01:53;98559.00;;;7.70
67758;BMP180;54562;47.620;18.786;2022-11-15T10:05:03;98543.20;;;7.70
67758;BMP180;54562;47.620;18.786;2022-11-15T10:08:30;98540.20;;;7.76
67758;BMP180;54562;47.620;18.786;2022-11-15T10:11:41;98544.80;;;7.80
67758;BMP180;54562;47.620;18.786;2022-11-15T10:15:02;98542.20;;;7.90
67758;BMP180;54562;47.620;18.786;2022-11-15T10:18:23;98533.60;;;8.00
67758;BMP180;54562;47.620;18.786;2022-11-15T10:21:52;98525.80;;;8.00
67758;BMP180;54562;47.620;18.786;2022-11-15T10:25:22;98524.60;;;8.10
67758;BMP180;54562;47.620;18.786;2022-11-15T10:28:31;98513.00;;;8.20
67758;BMP180;54562;47.620;18.786;2022-11-15T10:31:42;98506.60;;;8.22
67758;BMP180;54562;47.620;18.786;2022-11-15T10:34:51;98506.80;;;8.30
67758;BMP180;54562;47.620;18.786;2022-11-15T10:38:10;98494.20;;;8.30
67758;BMP180;54562;47.620;18.786;2022-11-15T10:41:21;98485.60;;;8.30
67758;BMP180;54562;47.620;18.786;2022-11-15T10:44:32;98483.20;;;8.30
67758;BMP180;54562;47.620;18.786;2022-11-15T10:47:49;98483.40;;;8.30
67758;BMP180;54562;47.620;18.786;2022-11-15T10:50:57;98485.80;;;8.20
67758;BMP180;54562;47.620;18.786;2022-11-15T10:54:09;98485.80;;;8.20
67758;BMP180;54562;47.620;18.786;2022-11-15T10:57:28;98481.80;;;8.20
67758;BMP180;54562;47.620;18.786;2022-11-15T11:00:39;98484.00;;;8.20
67758;BMP180;54562;47.620;18.786;2022-11-15T11:04:02;98478.00;;;8.14
67758;BMP180;54562;47.620;18.786;2022-11-15T11:07:24;98476.80;;;8.18
67758;BMP180;54562;47.620;18.786;2022-11-15T11:10:33;98472.40;;;8.10
67758;BMP180;54562;47.620;18.786;2022-11-15T11:14:13;98462.60;;;8.10
67758;BMP180;54562;47.620;18.786;2022-11-15T11:17:35;98457.40;;;8.20
67758;BMP180;54562;47.620;18.786;2022-11-15T11:20:49;98448.40;;;8.20
67758;BMP180;54562;47.620;18.786;2022-11-15T11:24:08;98444.20;;;8.30
67758;BMP180;54562;47.620;18.786;2022-11-15T11:27:35;98449.00;;;8.32
67758;BMP180;54562;47.620;18.786;2022-11-15T11:30:58;98452.20;;;8.40
67758;BMP180;54562;47.620;18.786;2022-11-15T11:34:25;98453.20;;;8.40
67758;BMP180;54562;47.620;18.786;2022-11-15T11:37:46;98446.20;;;8.30
67758;BMP180;54562;47.620;18.786;2022-11-15T11:41:10;98439.60;;;8.20
67758;BMP180;54562;47.620;18.786;2022-11-15T11:44:35;98438.40;;;8.20
67758;BMP180;54562;47.620;18.786;2022-11-15T11:47:54;98442.20;;;8.10
67758;BMP180;54562;47.620;18.786;2022-11-15T11:51:15;98424.80;;;8.06
67758;BMP180;54562;47.620;18.786;2022-11-15T11:54:32;98414.20;;;8.00
67758;BMP180;54562;47.620;18.786;2022-11-15T11:57:53;98409.20;;;7.98
67758;BMP180;54562;47.620;18.786;2022-11-15T12:01:14;98411.80;;;7.90
67758;BMP180;54562;47.620;18.786;2022-11-15T12:04:30;98407.80;;;7.90
67758;BMP180;54562;47.620;18.786;2022-11-15T12:07:41;98406.20;;;7.90
67758;BMP180;54562;47.620;18.786;2022-11-15T12:11:07;98397.20;;;7.90
67758;BMP180;54562;47.620;18.786;2022-11-15T12:14:28;98390.40;;;7.90
67758;BMP180;54562;47.620;18.786;2022-11-15T12:17:41;98394.00;;;7.90
67758;BMP180;54562;47.620;18.786;2022-11-15T12:20:57;98380.40;;;7.80
67758;BMP180;54562;47.620;18.786;2022-11-15T12:24:14;98385.00;;;7.80
67758;BMP180;54562;47.620;18.786;2022-11-15T12:27:35;98385.20;;;7.70
67758;BMP180;54562;47.620;18.786;2022-11-15T12:30:52;98383.20;;;7.62
67758;BMP180;54562;47.620;18.786;2022-11-15T12:34:05;98390.00;;;7.60
67758;BMP180;54562;47.620;18.786;2022-11-15T12:37:51;98376.20;;;7.60
67758;BMP180;54562;47.620;18.786;2022-11-15T12:41:19;98363.00;;;7.60
67758;BMP180;54562;47.620;18.786;2022-11-15T12:44:59;98362.00;;;7.60
67758;BMP180;54562;47.620;18.786;2022-11-15T12:48:49;98351.60;;;7.60
67758;BMP180;54562;47.620;18.786;2022-11-15T12:52:10;98341.60;;;7.60
67758;BMP180;54562;47.620;18.786;2022-11-15T12:55:35;98348.80;;;7.58
67758;BMP180;54562;47.620;18.786;2022-11-15T12:58:49;98347.20;;;7.50
67758;BMP180;54562;47.620;18.786;2022-11-15T13:02:02;98341.80;;;7.50
67758;BMP180;54562;47.620;18.786;2022-11-15T13:05:58;98332.40;;;7.50
67758;BMP180;54562;47.620;18.786;2022-11-15T13:12:59;98331.00;;;7.40
67758;BMP180;54562;47.620;18.786;2022-11-15T13:16:08;98323.20;;;7.38
67758;BMP180;54562;47.620;18.786;2022-11-15T13:19:17;98327.00;;;7.40
67758;BMP180;54562;47.620;18.786;2022-11-15T13:22:27;98327.80;;;7.40
67758;BMP180;54562;47.620;18.786;2022-11-15T13:26:13;98329.80;;;7.40
67758;BMP180;54562;47.620;18.786;2022-11-15T13:29:23;98325.80;;;7.30
67758;BMP180;54562;47.620;18.786;2022-11-15T13:32:32;98330.00;;;7.30
67758;BMP180;54562;47.620;18.786;2022-11-15T13:35:45;98324.00;;;7.20
67758;BMP180;54562;47.620;18.786;2022-11-15T13:39:03;98317.40;;;7.20
67758;BMP180;54562;47.620;18.786;2022-11-15T13:42:19;98312.60;;;7.10
67758;BMP180;54562;47.620;18.786;2022-11-15T13:45:27;98307.00;;;7.10
67758;BMP180;54562;47.620;18.786;2022-11-15T13:48:36;98300.80;;;7.18
67758;BMP180;54562;47.620;18.786;2022-11-15T13:51:49;98308.80;;;7.10
67758;BMP180;54562;47.620;18.786;2022-11-15T13:55:03;98301.60;;;7.08
67758;BMP180;54562;47.620;18.786;2022-11-15T13:58:15;98292.20;;;7.00
67758;BMP180;54562;47.620;18.786;2022-11-15T14:01:32;98281.80;;;7.00
67758;BMP180;54562;47.620;18.786;2022-11-15T14:04:48;98280.00;;;6.90
67758;BMP180;54562;47.620;18.786;2022-11-15T14:07:59;98272.80;;;6.90
67758;BMP180;54562;47.620;18.786;2022-11-15T14:11:18;98274.60;;;6.90
67758;BMP180;54562;47.620;18.786;2022-11-15T14:14:28;98268.80;;;6.80
67758;BMP180;54562;47.620;18.786;2022-11-15T14:17:40;98267.80;;;6.80
67758;BMP180;54562;47.620;18.786;2022-11-15T14:21:10;98262.20;;;6.80
67758;BMP180;54562;47.620;18.786;2022-11-15T14:24:20;98262.60;;;6.76
67758;BMP180;54562;47.620;18.786;2022-11-15T14:27:29;98260.00;;;6.70
67758;BMP180;54562;47.620;18.786;2022-11-15T14:30:38;98261.20;;;6.70
67758;BMP180;54562;47.620;18.786;2022-11-15T14:33:48;98255.60;;;6.70
67758;BMP180;54562;47.620;18.786;2022-11-15T14:36:56;98252.20;;;6.70
67758;BMP180;54562;47.620;18.786;2022-11-15T14:40:11;98245.00;;;6.70
67758;BMP180;54562;47.620;18.786;2022-11-15T14:43:19;98248.80;;;6.70
67758;BMP180;54562;47.620;18.786;2022-11-15T14:46:27;98254.80;;;6.70
67758;BMP180;54562;47.620;18.786;2022-11-15T14:49:36;98253.60;;;6.70
67758;BMP180;54562;47.620;18.786;2022-11-15T14:52:46;98249.40;;;6.70
67758;BMP180;54562;47.620;18.786;2022-11-15T14:55:53;98250.40;;;6.70
67758;BMP180;54562;47.620;18.786;2022-11-15T14:59:01;98246.00;;;6.70
67758;BMP180;54562;47.620;18.786;2022-11-15T15:02:20;98245.20;;;6.70
67758;BMP180;54562;47.620;18.786;2022-11-15T15:05:33;98236.40;;;6.70
67758;BMP180;54562;47.620;18.786;2022-11-15T15:08:42;98236.40;;;6.70
67758;BMP180;54562;47.620;18.786;2022-11-15T15:11:50;98241.40;;;6.68
67758;BMP180;54562;47.620;18.786;2022-11-15T15:14:58;98237.00;;;6.60
67758;BMP180;54562;47.620;18.786;2022-11-15T15:18:06;98237.40;;;6.60
67758;BMP180;54562;47.620;18.786;2022-11-15T15:21:24;98236.00;;;6.60
67758;BMP180;54562;47.620;18.786;2022-11-15T15:24:40;98230.80;;;6.60
67758;BMP180;54562;47.620;18.786;2022-11-15T15:27:49;98231.80;;;6.56
67758;BMP180;54562;47.620;18.786;2022-11-15T15:30:56;98226.40;;;6.50
67758;BMP180;54562;47.620;18.786;2022-11-15T15:34:05;98220.00;;;6.50
67758;BMP180;54562;47.620;18.786;2022-11-15T15:37:27;98215.20;;;6.50
67758;BMP180;54562;47.620;18.786;2022-11-15T15:40:35;98218.20;;;6.50
67758;BMP180;54562;47.620;18.786;2022-11-15T15:43:44;98216.20;;;6.50
67758;BMP180;54562;47.620;18.786;2022-11-15T15:46:52;98220.00;;;6.50
67758;BMP180;54562;47.620;18.786;2022-11-15T15:50:00;98215.00;;;6.50
67758;BMP180;54562;47.620;18.786;2022-11-15T15:53:09;98215.60;;;6.50
67758;BMP180;54562;47.620;18.786;2022-11-15T15:56:17;98214.40;;;6.50
67758;BMP180;54562;47.620;18.786;2022-11-15T15:59:25;98211.80;;;6.48
67758;BMP180;54562;47.620;18.786;2022-11-15T16:02:33;98216.80;;;6.40
67758;BMP180;54562;47.620;18.786;2022-11-15T16:05:46;98215.60;;;6.42
67758;BMP180;54562;47.620;18.786;2022-11-15T16:08:53;98223.60;;;6.50
67758;BMP180;54562;47.620;18.786;2022-11-15T16:12:22;98226.80;;;6.52
67758;BMP180;54562;47.620;18.786;2022-11-15T16:15:32;98225.60;;;6.58
67758;BMP180;54562;47.620;18.786;2022-11-15T16:18:40;98225.00;;;6.58
67758;BMP180;54562;47.620;18.786;2022-11-15T16:21:48;98226.00;;;6.60
67758;BMP180;54562;47.620;18.786;2022-11-15T16:24:58;98221.80;;;6.60
67758;BMP180;54562;47.620;18.786;2022-11-15T16:28:07;98219.80;;;6.56
67758;BMP180;54562;47.620;18.786;2022-11-15T16:31:20;98216.80;;;6.50
67758;BMP180;54562;47.620;18.786;2022-11-15T16:34:28;98214.00;;;6.50
67758;BMP180;54562;47.620;18.786;2022-11-15T16:37:42;98208.60;;;6.50
67758;BMP180;54562;47.620;18.786;2022-11-15T16:40:52;98207.00;;;6.56
67758;BMP180;54562;47.620;18.786;2022-11-15T16:44:01;98203.40;;;6.50
67758;BMP180;54562;47.620;18.786;2022-11-15T16:47:18;98204.40;;;6.50
67758;BMP180;54562;47.620;18.786;2022-11-15T16:50:30;98204.40;;;6.50
67758;BMP180;54562;47.620;18.786;2022-11-15T16:53:41;98204.40;;;6.50
67758;BMP180;54562;47.620;18.786;2022-11-15T16:56:49;98198.60;;;6.50
67758;BMP180;54562;47.620;18.786;2022-11-15T16:59:57;98196.80;;;6.50
67758;BMP180;54562;47.620;18.786;2022-11-15T17:03:05;98188.60;;;6.50
67758;BMP180;54562;47.620;18.786;2022-11-15T17:06:15;98188.40;;;6.40
67758;BMP180;54562;47.620;18.786;2022-11-15T17:09:24;98187.40;;;6.40
67758;BMP180;54562;47.620;18.786;2022-11-15T17:12:32;98189.20;;;6.40
67758;BMP180;54562;47.620;18.786;2022-11-15T17:15:41;98191.80;;;6.40
67758;BMP180;54562;47.620;18.786;2022-11-15T17:18:52;98186.40;;;6.34
67758;BMP180;54562;47.620;18.786;2022-11-15T17:22:01;98187.00;;;6.30
67758;BMP180;54562;47.620;18.786;2022-11-15T17:25:10;98186.40;;;6.30
67758;BMP180;54562;47.620;18.786;2022-11-15T17:28:18;98187.40;;;6.30
67758;BMP180;54562;47.620;18.786;2022-11-15T17:31:26;98181.00;;;6.30
67758;BMP180;54562;47.620;18.786;2022-11-15T17:34:36;98175.80;;;6.30
67758;BMP180;54562;47.620;18.786;2022-11-15T17:37:44;98168.00;;;6.30
67758;BMP180;54562;47.620;18.786;2022-11-15T17:41:03;98163.00;;;6.30
67758;BMP180;54562;47.620;18.786;2022-11-15T17:44:11;98158.40;;;6.34
67758;BMP180;54562;47.620;18.786;2022-11-15T17:47:19;98157.60;;;6.40
67758;BMP180;54562;47.620;18.786;2022-11-15T17:50:27;98150.80;;;6.40
67758;BMP180;54562;47.620;18.786;2022-11-15T17:53:38;98143.00;;;6.40
67758;BMP180;54562;47.620;18.786;2022-11-15T17:56:47;98142.60;;;6.40
67758;BMP180;54562;47.620;18.786;2022-11-15T17:59:55;98139.60;;;6.48
67758;BMP180;54562;47.620;18.786;2022-11-15T18:03:02;98142.60;;;6.50
67758;BMP180;54562;47.620;18.786;2022-11-15T18:06:11;98141.40;;;6.50
67758;BMP180;54562;47.620;18.786;2022-11-15T18:09:20;98132.80;;;6.54
67758;BMP180;54562;47.620;18.786;2022-11-15T18:12:28;98137.80;;;6.60
67758;BMP180;54562;47.620;18.786;2022-11-15T18:15:36;98131.00;;;6.60
67758;BMP180;54562;47.620;18.786;2022-11-15T18:18:45;98123.60;;;6.60
67758;BMP180;54562;47.620;18.786;2022-11-15T18:21:53;98120.60;;;6.60
67758;BMP180;54562;47.620;18.786;2022-11-15T18:25:05;98115.00;;;6.60
67758;BMP180;54562;47.620;18.786;2022-11-15T18:28:13;98113.80;;;6.60
67758;BMP180;54562;47.620;18.786;2022-11-15T18:31:23;98112.00;;;6.60
67758;BMP180;54562;47.620;18.786;2022-11-15T18:34:31;98117.40;;;6.60